createdAt,value
2024-01-26T00:00:21.168Z,7.77
2024-01-26T00:03:23.982Z,5.30
2024-01-26T00:06:26.823Z,5.65
2024-01-26T00:09:29.739Z,5.47
2024-01-26T00:12:32.501Z,6.00
2024-01-26T00:15:35.309Z,24.47
2024-01-26T00:18:37.954Z,4.50
2024-01-26T00:21:40.805Z,2.15
2024-01-26T00:24:43.265Z,3.05
2024-01-26T00:27:46.053Z,4.35
2024-01-26T00:30:48.463Z,3.80
2024-01-26T00:33:51.288Z,7.03
2024-01-26T00:36:53.715Z,5.75
2024-01-26T00:39:56.422Z,3.58
2024-01-26T00:42:58.937Z,5.65
2024-01-26T00:46:01.687Z,4.47
2024-01-26T00:49:04.966Z,5.07
2024-01-26T00:52:07.742Z,4.95
2024-01-26T00:55:10.181Z,5.85
2024-01-26T00:58:12.888Z,4.60
2024-01-26T01:01:15.472Z,7.70
2024-01-26T01:04:18.294Z,4.50
2024-01-26T01:07:20.828Z,8.07
2024-01-26T01:10:23.755Z,5.03
2024-01-26T01:13:26.260Z,3.08
2024-01-26T01:16:29.270Z,3.47
2024-01-26T01:19:32.051Z,5.03
2024-01-26T01:22:34.705Z,3.97
2024-01-26T01:25:38.000Z,4.55
2024-01-26T01:28:40.770Z,4.65
2024-01-26T01:31:43.182Z,5.53
2024-01-26T01:34:45.840Z,10.07
2024-01-26T01:37:48.225Z,5.75
2024-01-26T01:40:50.947Z,5.87
2024-01-26T01:43:57.099Z,8.02
2024-01-26T01:46:59.741Z,4.90
2024-01-26T01:50:02.159Z,4.87
2024-01-26T01:53:05.513Z,3.45
2024-01-26T01:56:11.654Z,3.72
2024-01-26T01:59:15.026Z,1.70
2024-01-26T02:02:17.417Z,7.77
2024-01-26T02:05:20.258Z,8.40
2024-01-26T02:08:22.678Z,4.03
2024-01-26T02:11:25.282Z,4.75
2024-01-26T02:14:27.943Z,5.22
2024-01-26T02:17:32.378Z,4.43
2024-01-26T02:20:43.284Z,1.60
2024-01-26T02:23:52.771Z,4.68
2024-01-26T02:26:55.174Z,5.12
2024-01-26T02:29:57.917Z,1.37
2024-01-26T02:33:00.463Z,4.27
2024-01-26T02:36:03.303Z,3.40
2024-01-26T02:39:06.522Z,3.78
2024-01-26T02:42:09.300Z,2.03
2024-01-26T02:45:12.012Z,7.05
2024-01-26T02:48:15.341Z,10.30
2024-01-26T02:51:17.840Z,6.57
2024-01-26T02:54:23.610Z,4.12
2024-01-26T02:57:26.613Z,6.93
2024-01-26T03:00:29.302Z,4.50
2024-01-26T03:03:31.687Z,7.97
2024-01-26T03:06:34.419Z,9.17
2024-01-26T03:09:36.921Z,5.30
2024-01-26T03:12:39.595Z,4.47
2024-01-26T03:15:42.069Z,6.62
2024-01-26T03:18:44.897Z,2.23
2024-01-26T03:21:47.530Z,5.40
2024-01-26T03:24:50.161Z,3.30
2024-01-26T03:27:52.549Z,6.72
2024-01-26T03:30:55.231Z,8.20
2024-01-26T03:33:57.935Z,6.63
2024-01-26T03:37:00.762Z,3.00
2024-01-26T03:40:04.382Z,5.43
2024-01-26T03:43:07.082Z,3.85
2024-01-26T03:46:09.579Z,9.45
2024-01-26T03:49:12.314Z,4.17
2024-01-26T03:52:14.766Z,12.63
2024-01-26T03:55:17.554Z,5.12
2024-01-26T03:58:19.976Z,2.60
2024-01-26T04:01:22.853Z,7.57
2024-01-26T04:04:25.648Z,9.10
2024-01-26T04:07:28.095Z,2.73
2024-01-26T04:10:31.426Z,4.72
2024-01-26T04:13:33.846Z,11.07
2024-01-26T04:16:36.564Z,4.62
2024-01-26T04:19:39.045Z,4.63
2024-01-26T04:22:43.151Z,2.57
2024-01-26T04:25:45.620Z,3.25
2024-01-26T04:28:48.277Z,9.52
2024-01-26T04:31:50.700Z,5.53
2024-01-26T04:34:53.354Z,5.00
2024-01-26T04:37:55.738Z,2.27
2024-01-26T04:40:58.432Z,10.95
2024-01-26T04:44:00.778Z,6.50
2024-01-26T04:47:03.959Z,2.53
2024-01-26T04:50:06.668Z,8.03
2024-01-26T04:53:09.354Z,4.50
2024-01-26T04:56:12.780Z,4.35
2024-01-26T04:59:15.477Z,8.32
2024-01-26T05:02:17.922Z,6.55
2024-01-26T05:05:20.579Z,4.60
2024-01-26T05:08:23.069Z,3.57
2024-01-26T05:11:25.796Z,4.28
2024-01-26T05:14:28.203Z,4.12
2024-01-26T05:17:30.945Z,8.98
2024-01-26T05:20:33.375Z,5.60
2024-01-26T05:23:36.255Z,7.27
2024-01-26T05:26:39.624Z,10.23
2024-01-26T05:29:42.355Z,7.32
2024-01-26T05:32:45.478Z,7.22
2024-01-26T05:35:48.303Z,14.17
2024-01-26T05:38:50.769Z,10.93
2024-01-26T05:41:53.538Z,8.93
2024-01-26T05:44:55.984Z,7.35
2024-01-26T05:47:58.813Z,8.75
2024-01-26T05:51:01.298Z,14.97
2024-01-26T05:54:04.557Z,11.97
2024-01-26T05:57:07.092Z,10.25
2024-01-26T06:00:11.143Z,14.02
2024-01-26T06:03:14.535Z,78.70
2024-01-26T06:06:17.253Z,67.57
2024-01-26T06:09:20.131Z,26.80
2024-01-26T06:12:22.607Z,13.90
2024-01-26T06:15:25.454Z,14.38
2024-01-26T06:18:28.245Z,12.82
2024-01-26T06:21:31.054Z,10.87
2024-01-26T06:24:33.426Z,13.90
2024-01-26T06:27:36.122Z,14.55
2024-01-26T06:30:38.614Z,14.40
2024-01-26T06:33:41.570Z,21.30
2024-01-26T06:36:44.072Z,22.63
2024-01-26T06:39:46.690Z,16.97
2024-01-26T06:42:49.072Z,13.77
2024-01-26T06:45:51.713Z,10.68
2024-01-26T06:48:54.328Z,19.65
2024-01-26T06:51:57.119Z,12.40
2024-01-26T06:54:59.636Z,16.10
2024-01-26T06:58:02.328Z,13.10
2024-01-26T07:01:05.116Z,9.82
2024-01-26T07:04:08.006Z,13.10
2024-01-26T07:07:10.779Z,15.27
2024-01-26T07:10:13.598Z,16.47
2024-01-26T07:13:15.962Z,14.15
2024-01-26T07:16:18.574Z,11.43
2024-01-26T07:19:21.125Z,17.25
2024-01-26T07:22:23.946Z,12.00
2024-01-26T07:25:26.473Z,10.77
2024-01-26T07:28:29.136Z,11.88
2024-01-26T07:31:31.529Z,13.90
2024-01-26T07:34:34.366Z,6.72
2024-01-26T07:37:36.924Z,10.07
2024-01-26T07:40:39.554Z,14.83
2024-01-26T07:43:41.993Z,7.80
2024-01-26T07:46:44.827Z,3.78
2024-01-26T07:49:49.694Z,8.77
2024-01-26T07:52:52.478Z,8.20
2024-01-26T07:55:54.896Z,14.63
2024-01-26T07:58:57.736Z,9.07
2024-01-26T08:02:00.193Z,7.00
2024-01-26T08:05:03.340Z,5.70
2024-01-26T08:08:05.803Z,7.50
2024-01-26T08:11:08.613Z,6.57
2024-01-26T08:14:11.232Z,9.07
2024-01-26T08:17:14.048Z,3.70
2024-01-26T08:20:17.120Z,9.65
2024-01-26T08:23:20.481Z,9.60
2024-01-26T08:26:23.030Z,6.83
2024-01-26T08:29:28.058Z,11.65
2024-01-26T08:32:30.677Z,6.72
2024-01-26T08:35:33.943Z,6.87
2024-01-26T08:38:36.695Z,5.10
2024-01-26T08:41:44.751Z,9.20
2024-01-26T08:44:47.304Z,7.93
2024-01-26T08:47:50.101Z,8.77
2024-01-26T08:50:52.571Z,3.50
2024-01-26T08:53:55.402Z,16.00
2024-01-26T08:56:57.879Z,6.83
2024-01-26T09:00:01.448Z,8.70
2024-01-26T09:03:04.340Z,3.30
2024-01-26T09:06:09.278Z,13.00
2024-01-26T09:09:12.750Z,10.23
2024-01-26T09:12:15.616Z,7.87
2024-01-26T09:15:18.184Z,7.55
2024-01-26T09:18:21.325Z,4.78
2024-01-26T09:21:24.014Z,8.57
2024-01-26T09:24:26.681Z,9.43
2024-01-26T09:27:29.378Z,3.03
2024-01-26T09:30:32.223Z,8.55
2024-01-26T09:33:34.950Z,10.15
2024-01-26T09:36:37.755Z,5.35
2024-01-26T09:39:40.245Z,11.43
2024-01-26T09:42:43.076Z,6.97
2024-01-26T09:45:46.242Z,8.25
2024-01-26T09:48:53.919Z,8.45
2024-01-26T09:51:56.481Z,8.57
2024-01-26T09:55:00.472Z,5.83
2024-01-26T09:58:03.234Z,6.53
2024-01-26T10:01:08.294Z,8.60
2024-01-26T10:04:11.156Z,6.53
2024-01-26T10:07:13.859Z,7.82
2024-01-26T10:10:16.625Z,15.40
2024-01-26T10:13:18.990Z,10.90
2024-01-26T10:16:21.841Z,11.82
2024-01-26T10:19:28.862Z,9.63
2024-01-26T10:22:32.024Z,11.30
2024-01-26T10:25:37.017Z,25.47
2024-01-26T10:28:39.805Z,23.80
2024-01-26T10:31:42.783Z,14.27
2024-01-26T10:34:47.509Z,12.55
2024-01-26T10:37:50.466Z,18.85
2024-01-26T10:41:02.202Z,14.33
2024-01-26T10:44:05.169Z,15.67
2024-01-26T10:47:10.114Z,13.05
2024-01-26T10:50:13.609Z,23.10
2024-01-26T10:53:18.179Z,19.83
2024-01-26T10:56:20.579Z,14.37
2024-01-26T10:59:24.319Z,9.00
2024-01-26T11:02:34.706Z,10.95
2024-01-26T11:05:37.541Z,67.05
2024-01-26T11:08:41.619Z,19.80
2024-01-26T11:11:44.401Z,13.40
2024-01-26T11:14:48.817Z,12.37
2024-01-26T11:17:53.626Z,15.50
2024-01-26T11:21:02.417Z,12.27
2024-01-26T11:24:34.766Z,11.75
2024-01-26T11:27:37.279Z,9.83
2024-01-26T11:30:40.785Z,7.23
2024-01-26T11:33:44.470Z,12.70
2024-01-26T11:36:48.007Z,14.90
2024-01-26T11:39:50.574Z,11.57
2024-01-26T11:42:53.563Z,11.10
2024-01-26T11:45:57.070Z,13.80
2024-01-26T11:49:00.133Z,14.07
2024-01-26T11:52:05.016Z,18.05
2024-01-26T11:55:08.077Z,15.07
2024-01-26T11:58:12.130Z,8.80
2024-01-26T12:01:15.413Z,13.80
2024-01-26T12:04:18.245Z,12.65
2024-01-26T12:07:20.883Z,17.15
2024-01-26T12:10:25.035Z,17.45
2024-01-26T12:13:27.683Z,15.17
2024-01-26T12:16:31.450Z,13.33
2024-01-26T12:19:34.019Z,11.85
2024-01-26T12:22:37.437Z,9.93
2024-01-26T12:25:40.695Z,11.32
2024-01-26T12:28:43.474Z,10.80
2024-01-26T12:31:45.955Z,6.63
2024-01-26T12:34:48.788Z,11.70
2024-01-26T12:37:55.599Z,10.27
2024-01-26T12:40:59.865Z,11.45
2024-01-26T12:44:02.478Z,12.00
2024-01-26T12:47:05.273Z,14.00
2024-01-26T12:50:08.352Z,9.13
2024-01-26T12:53:11.896Z,7.97
2024-01-26T12:56:14.505Z,6.82
2024-01-26T12:59:17.336Z,13.57
2024-01-26T13:02:19.755Z,9.43
2024-01-26T13:05:22.491Z,8.90
2024-01-26T13:08:25.011Z,12.63
2024-01-26T13:11:28.579Z,11.45
2024-01-26T13:14:31.019Z,9.17
2024-01-26T13:17:33.789Z,11.13
2024-01-26T13:20:36.744Z,4.07
2024-01-26T13:23:40.424Z,11.00
2024-01-26T13:26:44.061Z,11.50
2024-01-26T13:29:47.310Z,11.63
2024-01-26T13:32:50.586Z,6.17
2024-01-26T13:35:53.764Z,6.40
2024-01-26T13:38:56.229Z,11.32
2024-01-26T13:41:59.544Z,8.18
2024-01-26T13:45:02.408Z,9.87
2024-01-26T13:48:11.460Z,14.73
2024-01-26T13:51:14.723Z,13.27
2024-01-26T13:54:17.867Z,10.23
2024-01-26T13:57:20.467Z,11.05
2024-01-26T14:00:23.901Z,13.80
2024-01-26T14:03:26.994Z,13.07
2024-01-26T14:06:30.889Z,13.02
2024-01-26T14:09:35.957Z,64.65
2024-01-26T14:12:38.851Z,88.18
2024-01-26T14:15:41.526Z,20.70
2024-01-26T14:18:44.142Z,16.57
2024-01-26T14:21:46.992Z,13.07
2024-01-26T14:24:49.352Z,7.30
2024-01-26T14:27:52.687Z,14.93
2024-01-26T14:30:55.475Z,15.97
2024-01-26T14:33:58.527Z,16.57
2024-01-26T14:37:01.802Z,56.30
2024-01-26T14:40:06.081Z,98.93
2024-01-26T14:43:11.272Z,59.78
2024-01-26T14:46:14.501Z,20.87
2024-01-26T14:49:17.285Z,13.80
2024-01-26T14:52:22.388Z,17.75
2024-01-26T14:55:24.893Z,20.50
2024-01-26T14:58:30.278Z,26.73
2024-01-26T15:01:32.712Z,20.30
2024-01-26T15:04:35.405Z,26.97
2024-01-26T15:07:39.960Z,22.10
2024-01-26T15:10:46.199Z,21.92
2024-01-26T15:13:48.682Z,21.98
2024-01-26T15:16:51.352Z,38.83
2024-01-26T15:19:54.136Z,124.37
2024-01-26T15:22:57.007Z,101.30
2024-01-26T15:25:59.437Z,75.45
2024-01-26T15:29:02.454Z,35.10
2024-01-26T15:32:05.113Z,35.10
2024-01-26T15:35:08.015Z,30.97
2024-01-26T15:38:10.478Z,36.05
2024-01-26T15:41:13.176Z,43.80
2024-01-26T15:44:16.030Z,32.78
2024-01-26T15:47:18.701Z,39.67
2024-01-26T15:50:23.254Z,25.10
2024-01-26T15:53:25.941Z,23.95
2024-01-26T15:56:28.310Z,27.62
2024-01-26T15:59:31.683Z,22.83
2024-01-26T16:02:34.149Z,33.33
2024-01-26T16:05:37.039Z,25.57
2024-01-26T16:08:39.544Z,32.88
2024-01-26T16:11:43.781Z,28.35
2024-01-26T16:14:47.005Z,24.65
2024-01-26T16:17:49.806Z,25.97
2024-01-26T16:20:52.256Z,28.17
2024-01-26T16:23:55.162Z,28.48
2024-01-26T16:26:57.815Z,31.02
2024-01-26T16:30:00.639Z,12.57
2024-01-26T16:33:03.278Z,30.73
2024-01-26T16:36:06.643Z,22.23
2024-01-26T16:39:15.872Z,27.10
2024-01-26T16:42:25.557Z,92.53
2024-01-26T16:45:28.100Z,65.53
2024-01-26T16:48:31.015Z,32.97
2024-01-26T16:51:33.550Z,17.77
2024-01-26T16:54:36.466Z,30.62
2024-01-26T16:57:38.995Z,26.83
2024-01-26T17:00:42.399Z,25.25
2024-01-26T17:03:45.047Z,22.63
2024-01-26T17:06:47.904Z,23.53
2024-01-26T17:09:50.363Z,29.65
2024-01-26T17:12:53.069Z,31.10
2024-01-26T17:15:56.156Z,29.27
2024-01-26T17:18:59.061Z,22.77
2024-01-26T17:22:01.564Z,18.87
2024-01-26T17:25:06.105Z,18.80
2024-01-26T17:28:08.474Z,21.87
2024-01-26T17:31:12.975Z,15.18
2024-01-26T17:34:16.558Z,18.73
2024-01-26T17:37:19.483Z,16.40
2024-01-26T17:40:21.895Z,18.75
2024-01-26T17:43:24.568Z,16.58
2024-01-26T17:46:27.045Z,17.70
2024-01-26T17:49:29.839Z,15.47
2024-01-26T17:52:33.583Z,16.83
2024-01-26T17:55:41.035Z,21.12
2024-01-26T17:58:45.425Z,18.95
2024-01-26T18:01:48.188Z,17.02
2024-01-26T18:04:50.827Z,22.80
2024-01-26T18:07:53.708Z,14.77
2024-01-26T18:10:57.707Z,16.08
2024-01-26T18:14:01.396Z,17.70
2024-01-26T18:17:04.496Z,12.98
2024-01-26T18:20:07.546Z,19.80
2024-01-26T18:23:10.472Z,14.33
2024-01-26T18:26:14.730Z,17.90
2024-01-26T18:29:18.191Z,18.33
2024-01-26T18:32:20.839Z,18.55
2024-01-26T18:35:23.664Z,15.73
2024-01-26T18:38:26.390Z,25.70
2024-01-26T18:41:31.218Z,18.55
2024-01-26T18:44:33.713Z,18.95
2024-01-26T18:47:39.189Z,21.00
2024-01-26T18:50:41.803Z,20.33
2024-01-26T18:53:44.565Z,24.90
2024-01-26T18:56:47.445Z,27.60
2024-01-26T18:59:50.520Z,29.12
2024-01-26T19:02:53.114Z,31.30
2024-01-26T19:05:56.094Z,26.47
2024-01-26T19:08:58.748Z,21.03
2024-01-26T19:12:02.277Z,17.15
2024-01-26T19:15:06.694Z,20.10
2024-01-26T19:18:10.778Z,19.10
2024-01-26T19:21:13.552Z,21.43
2024-01-26T19:24:22.744Z,21.10
2024-01-26T19:27:29.061Z,23.23
2024-01-26T19:30:37.187Z,20.42
2024-01-26T19:33:40.158Z,17.80
2024-01-26T19:36:43.850Z,16.97
2024-01-26T19:39:46.606Z,12.77
2024-01-26T19:42:49.602Z,17.33
2024-01-26T19:45:52.242Z,15.90
2024-01-26T19:48:56.180Z,13.98
2024-01-26T19:51:58.796Z,13.57
2024-01-26T19:55:03.708Z,18.50
2024-01-26T19:58:06.450Z,17.23
2024-01-26T20:01:09.439Z,17.87
2024-01-26T20:04:12.140Z,17.05
2024-01-26T20:07:16.697Z,16.80
2024-01-26T20:10:20.152Z,22.30
2024-01-26T20:13:23.525Z,18.42
2024-01-26T20:16:27.106Z,19.08
2024-01-26T20:19:29.706Z,19.80
2024-01-26T20:22:33.005Z,16.73
2024-01-26T20:25:35.851Z,17.40
2024-01-26T20:28:40.514Z,16.75
2024-01-26T20:31:43.451Z,15.85
2024-01-26T20:34:51.299Z,14.75
2024-01-26T20:37:53.973Z,21.03
2024-01-26T20:40:56.692Z,17.67
2024-01-26T20:44:02.779Z,20.58
2024-01-26T20:47:05.541Z,19.58
2024-01-26T20:50:09.893Z,16.95
2024-01-26T20:53:12.772Z,18.90
2024-01-26T20:56:15.195Z,17.57
2024-01-26T20:59:17.864Z,22.27
2024-01-26T21:02:20.297Z,21.48
2024-01-26T21:05:29.137Z,14.82
2024-01-26T21:08:32.463Z,17.97
2024-01-26T21:11:35.193Z,20.73
2024-01-26T21:14:37.741Z,23.52
2024-01-26T21:17:40.858Z,26.30
2024-01-26T21:20:43.486Z,23.58
2024-01-26T21:23:46.264Z,22.13
2024-01-26T21:26:48.727Z,19.90
2024-01-26T21:29:53.006Z,18.75
2024-01-26T21:32:55.749Z,19.40
2024-01-26T21:35:58.680Z,17.58
2024-01-26T21:39:01.336Z,15.43
2024-01-26T21:42:04.791Z,9.20
2024-01-26T21:45:07.518Z,11.07
2024-01-26T21:48:11.907Z,9.35
2024-01-26T21:51:15.278Z,5.50
2024-01-26T21:54:19.950Z,6.33
2024-01-26T21:57:22.935Z,4.40
2024-01-26T22:00:25.764Z,3.62
2024-01-26T22:03:29.118Z,2.55
2024-01-26T22:06:35.384Z,4.20
2024-01-26T22:09:38.274Z,3.67
2024-01-26T22:12:40.665Z,3.50
2024-01-26T22:15:43.430Z,1.37
2024-01-26T22:18:45.956Z,1.60
2024-01-26T22:21:49.921Z,3.92
2024-01-26T22:24:52.404Z,2.80
2024-01-26T22:27:55.201Z,2.40
2024-01-26T22:30:57.652Z,3.12
2024-01-26T22:34:00.533Z,2.47
2024-01-26T22:37:03.060Z,1.20
2024-01-26T22:40:06.336Z,1.87
2024-01-26T22:43:08.733Z,1.00
2024-01-26T22:46:11.720Z,1.23
2024-01-26T22:49:14.342Z,3.33
2024-01-26T22:52:17.269Z,1.62
2024-01-26T22:55:21.315Z,2.37
2024-01-26T22:58:25.333Z,2.53
2024-01-26T23:01:27.860Z,1.48
2024-01-26T23:04:30.543Z,3.55
2024-01-26T23:07:32.940Z,2.72
2024-01-26T23:10:35.596Z,2.73
2024-01-26T23:13:38.143Z,1.80
2024-01-26T23:16:40.885Z,1.40
2024-01-26T23:19:43.362Z,2.12
2024-01-26T23:22:46.090Z,1.45
2024-01-26T23:25:48.586Z,2.80
2024-01-26T23:28:51.756Z,3.40
2024-01-26T23:31:54.150Z,4.93
2024-01-26T23:34:57.427Z,2.12
2024-01-26T23:37:59.819Z,1.58
2024-01-26T23:41:02.592Z,2.70
2024-01-26T23:44:05.161Z,2.27
2024-01-26T23:47:07.780Z,1.83
2024-01-26T23:50:10.751Z,3.55
2024-01-26T23:53:13.476Z,1.50
2024-01-26T23:56:15.820Z,1.93
2024-01-26T23:59:19.057Z,1.77
